sensor_id;sensor_type;location;lat;lon;timestamp;P1;durP1;ratioP1;P2;durP2;ratioP2
60464;SDS011;46314;52.392;9.758;2023-04-06T00:01:40;13.02;;;11.60;;
60464;SDS011;46314;52.392;9.758;2023-04-06T00:04:07;13.25;;;11.43;;
60464;SDS011;46314;52.392;9.758;2023-04-06T00:06:35;12.88;;;11.45;;
60464;SDS011;46314;52.392;9.758;2023-04-06T00:09:01;11.82;;;10.73;;
60464;SDS011;46314;52.392;9.758;2023-04-06T00:11:28;14.07;;;11.77;;
60464;SDS011;46314;52.392;9.758;2023-04-06T00:13:54;12.57;;;11.30;;
60464;SDS011;46314;52.392;9.758;2023-04-06T00:16:20;13.02;;;11.77;;
60464;SDS011;46314;52.392;9.758;2023-04-06T00:18:50;13.55;;;11.57;;
60464;SDS011;46314;52.392;9.758;2023-04-06T00:21:16;16.95;;;11.63;;
60464;SDS011;46314;52.392;9.758;2023-04-06T00:23:44;13.23;;;11.93;;
60464;SDS011;46314;52.392;9.758;2023-04-06T00:26:10;14.02;;;12.00;;
60464;SDS011;46314;52.392;9.758;2023-04-06T00:28:37;13.75;;;11.70;;
60464;SDS011;46314;52.392;9.758;2023-04-06T00:31:04;14.07;;;12.00;;
60464;SDS011;46314;52.392;9.758;2023-04-06T00:33:30;13.00;;;11.70;;
60464;SDS011;46314;52.392;9.758;2023-04-06T00:35:58;13.18;;;11.77;;
60464;SDS011;46314;52.392;9.758;2023-04-06T00:38:24;12.75;;;11.52;;
60464;SDS011;46314;52.392;9.758;2023-04-06T00:40:52;12.93;;;11.63;;
60464;SDS011;46314;52.392;9.758;2023-04-06T00:43:19;13.57;;;12.18;;
60464;SDS011;46314;52.392;9.758;2023-04-06T00:45:45;13.55;;;12.07;;
60464;SDS011;46314;52.392;9.758;2023-04-06T00:48:11;12.77;;;11.48;;
60464;SDS011;46314;52.392;9.758;2023-04-06T00:50:38;14.20;;;12.75;;
60464;SDS011;46314;52.392;9.758;2023-04-06T00:53:04;12.73;;;11.43;;
60464;SDS011;46314;52.392;9.758;2023-04-06T00:55:31;14.05;;;12.18;;
60464;SDS011;46314;52.392;9.758;2023-04-06T00:57:59;14.93;;;13.38;;
60464;SDS011;46314;52.392;9.758;2023-04-06T01:00:25;14.85;;;13.05;;
60464;SDS011;46314;52.392;9.758;2023-04-06T01:02:52;16.52;;;13.05;;
60464;SDS011;46314;52.392;9.758;2023-04-06T01:05:19;13.52;;;12.18;;
60464;SDS011;46314;52.392;9.758;2023-04-06T01:07:45;20.20;;;13.02;;
60464;SDS011;46314;52.392;9.758;2023-04-06T01:10:21;14.88;;;12.90;;
60464;SDS011;46314;52.392;9.758;2023-04-06T01:12:48;13.38;;;11.73;;
60464;SDS011;46314;52.392;9.758;2023-04-06T01:15:16;15.43;;;12.63;;
60464;SDS011;46314;52.392;9.758;2023-04-06T01:17:43;15.90;;;13.80;;
60464;SDS011;46314;52.392;9.758;2023-04-06T01:20:10;14.70;;;12.63;;
60464;SDS011;46314;52.392;9.758;2023-04-06T01:22:37;15.63;;;13.57;;
60464;SDS011;46314;52.392;9.758;2023-04-06T01:25:04;13.43;;;12.10;;
60464;SDS011;46314;52.392;9.758;2023-04-06T01:27:31;14.45;;;12.90;;
60464;SDS011;46314;52.392;9.758;2023-04-06T01:29:58;13.32;;;11.93;;
60464;SDS011;46314;52.392;9.758;2023-04-06T01:32:24;14.75;;;12.68;;
60464;SDS011;46314;52.392;9.758;2023-04-06T01:34:51;14.02;;;12.35;;
60464;SDS011;46314;52.392;9.758;2023-04-06T01:37:17;14.90;;;12.35;;
60464;SDS011;46314;52.392;9.758;2023-04-06T01:39:45;13.80;;;12.30;;
60464;SDS011;46314;52.392;9.758;2023-04-06T01:42:12;13.10;;;11.75;;
60464;SDS011;46314;52.392;9.758;2023-04-06T01:44:38;13.63;;;12.20;;
60464;SDS011;46314;52.392;9.758;2023-04-06T01:47:04;15.40;;;13.52;;
60464;SDS011;46314;52.392;9.758;2023-04-06T01:49:31;15.88;;;14.18;;
60464;SDS011;46314;52.392;9.758;2023-04-06T01:51:57;15.57;;;13.93;;
60464;SDS011;46314;52.392;9.758;2023-04-06T01:54:23;13.38;;;11.98;;
60464;SDS011;46314;52.392;9.758;2023-04-06T01:56:51;13.50;;;12.18;;
60464;SDS011;46314;52.392;9.758;2023-04-06T01:59:19;16.20;;;13.10;;
60464;SDS011;46314;52.392;9.758;2023-04-06T02:01:45;17.08;;;14.02;;
60464;SDS011;46314;52.392;9.758;2023-04-06T02:04:11;14.30;;;12.80;;
60464;SDS011;46314;52.392;9.758;2023-04-06T02:06:38;15.77;;;13.82;;
60464;SDS011;46314;52.392;9.758;2023-04-06T02:09:04;14.88;;;13.35;;
60464;SDS011;46314;52.392;9.758;2023-04-06T02:11:31;13.80;;;11.98;;
60464;SDS011;46314;52.392;9.758;2023-04-06T02:13:59;17.10;;;13.70;;
60464;SDS011;46314;52.392;9.758;2023-04-06T02:16:26;15.23;;;13.10;;
60464;SDS011;46314;52.392;9.758;2023-04-06T02:18:52;17.23;;;12.95;;
60464;SDS011;46314;52.392;9.758;2023-04-06T02:21:18;16.15;;;14.48;;
60464;SDS011;46314;52.392;9.758;2023-04-06T02:23:45;17.85;;;13.48;;
60464;SDS011;46314;52.392;9.758;2023-04-06T02:26:11;14.73;;;13.18;;
60464;SDS011;46314;52.392;9.758;2023-04-06T02:28:38;15.23;;;13.50;;
60464;SDS011;46314;52.392;9.758;2023-04-06T02:31:05;17.92;;;14.30;;
60464;SDS011;46314;52.392;9.758;2023-04-06T02:33:32;14.50;;;13.10;;
60464;SDS011;46314;52.392;9.758;2023-04-06T02:35:58;14.75;;;13.20;;
60464;SDS011;46314;52.392;9.758;2023-04-06T02:38:24;16.98;;;14.32;;
60464;SDS011;46314;52.392;9.758;2023-04-06T02:40:51;16.42;;;14.10;;
60464;SDS011;46314;52.392;9.758;2023-04-06T02:43:18;14.88;;;13.13;;
60464;SDS011;46314;52.392;9.758;2023-04-06T02:45:45;14.85;;;13.27;;
60464;SDS011;46314;52.392;9.758;2023-04-06T02:48:13;14.68;;;13.05;;
60464;SDS011;46314;52.392;9.758;2023-04-06T02:50:40;16.33;;;13.75;;
60464;SDS011;46314;52.392;9.758;2023-04-06T02:53:06;14.75;;;13.30;;
60464;SDS011;46314;52.392;9.758;2023-04-06T02:55:32;15.88;;;12.45;;
60464;SDS011;46314;52.392;9.758;2023-04-06T02:57:59;15.57;;;13.93;;
60464;SDS011;46314;52.392;9.758;2023-04-06T03:00:25;16.73;;;13.57;;
60464;SDS011;46314;52.392;9.758;2023-04-06T03:02:52;14.25;;;12.73;;
60464;SDS011;46314;52.392;9.758;2023-04-06T03:05:19;14.93;;;12.68;;
60464;SDS011;46314;52.392;9.758;2023-04-06T03:07:46;17.85;;;13.73;;
60464;SDS011;46314;52.392;9.758;2023-04-06T03:10:12;15.00;;;12.10;;
60464;SDS011;46314;52.392;9.758;2023-04-06T03:12:39;14.07;;;12.40;;
60464;SDS011;46314;52.392;9.758;2023-04-06T03:15:05;14.57;;;13.07;;
60464;SDS011;46314;52.392;9.758;2023-04-06T03:17:33;13.45;;;12.05;;
60464;SDS011;46314;52.392;9.758;2023-04-06T03:19:59;14.23;;;11.20;;
60464;SDS011;46314;52.392;9.758;2023-04-06T03:22:28;12.95;;;11.45;;
60464;SDS011;46314;52.392;9.758;2023-04-06T03:24:55;13.90;;;11.52;;
60464;SDS011;46314;52.392;9.758;2023-04-06T03:27:21;15.48;;;12.38;;
60464;SDS011;46314;52.392;9.758;2023-04-06T03:29:47;13.25;;;10.60;;
60464;SDS011;46314;52.392;9.758;2023-04-06T03:32:14;15.50;;;12.73;;
60464;SDS011;46314;52.392;9.758;2023-04-06T03:34:40;13.48;;;11.25;;
60464;SDS011;46314;52.392;9.758;2023-04-06T03:37:06;15.07;;;12.70;;
60464;SDS011;46314;52.392;9.758;2023-04-06T03:39:37;13.48;;;12.00;;
60464;SDS011;46314;52.392;9.758;2023-04-06T03:42:04;14.70;;;11.95;;
60464;SDS011;46314;52.392;9.758;2023-04-06T03:44:30;14.50;;;11.98;;
60464;SDS011;46314;52.392;9.758;2023-04-06T03:46:56;12.48;;;11.10;;
60464;SDS011;46314;52.392;9.758;2023-04-06T03:49:23;14.88;;;12.18;;
60464;SDS011;46314;52.392;9.758;2023-04-06T03:51:49;15.23;;;11.88;;
60464;SDS011;46314;52.392;9.758;2023-04-06T03:54:16;13.07;;;11.77;;
60464;SDS011;46314;52.392;9.758;2023-04-06T03:56:44;15.40;;;12.73;;
60464;SDS011;46314;52.392;9.758;2023-04-06T03:59:10;13.18;;;10.90;;
60464;SDS011;46314;52.392;9.758;2023-04-06T04:01:37;14.27;;;11.73;;
60464;SDS011;46314;52.392;9.758;2023-04-06T04:04:03;11.32;;;10.02;;
60464;SDS011;46314;52.392;9.758;2023-04-06T04:06:30;13.02;;;11.63;;
60464;SDS011;46314;52.392;9.758;2023-04-06T04:08:56;13.98;;;11.27;;
60464;SDS011;46314;52.392;9.758;2023-04-06T04:11:22;15.07;;;12.00;;
60464;SDS011;46314;52.392;9.758;2023-04-06T04:13:50;14.55;;;11.43;;
60464;SDS011;46314;52.392;9.758;2023-04-06T04:16:17;13.88;;;9.88;;
60464;SDS011;46314;52.392;9.758;2023-04-06T04:18:43;11.63;;;10.10;;
60464;SDS011;46314;52.392;9.758;2023-04-06T04:21:10;18.30;;;12.00;;
60464;SDS011;46314;52.392;9.758;2023-04-06T04:23:37;18.60;;;11.75;;
60464;SDS011;46314;52.392;9.758;2023-04-06T04:26:03;14.20;;;11.43;;
60464;SDS011;46314;52.392;9.758;2023-04-06T04:28:30;13.85;;;11.90;;
60464;SDS011;46314;52.392;9.758;2023-04-06T04:30:58;14.23;;;11.63;;
60464;SDS011;46314;52.392;9.758;2023-04-06T04:33:24;12.38;;;10.85;;
60464;SDS011;46314;52.392;9.758;2023-04-06T04:35:51;14.90;;;11.43;;
60464;SDS011;46314;52.392;9.758;2023-04-06T04:38:17;13.60;;;10.70;;
60464;SDS011;46314;52.392;9.758;2023-04-06T04:40:44;12.38;;;10.90;;
60464;SDS011;46314;52.392;9.758;2023-04-06T04:43:10;12.93;;;10.93;;
60464;SDS011;46314;52.392;9.758;2023-04-06T04:45:37;13.18;;;10.75;;
60464;SDS011;46314;52.392;9.758;2023-04-06T04:48:05;13.57;;;11.70;;
60464;SDS011;46314;52.392;9.758;2023-04-06T04:50:31;12.05;;;10.75;;
60464;SDS011;46314;52.392;9.758;2023-04-06T04:52:58;13.23;;;10.75;;
60464;SDS011;46314;52.392;9.758;2023-04-06T04:55:25;17.25;;;10.85;;
60464;SDS011;46314;52.392;9.758;2023-04-06T04:57:51;11.90;;;10.70;;
60464;SDS011;46314;52.392;9.758;2023-04-06T05:00:18;13.65;;;10.48;;
60464;SDS011;46314;52.392;9.758;2023-04-06T05:02:45;13.63;;;11.35;;
60464;SDS011;46314;52.392;9.758;2023-04-06T05:05:13;13.68;;;10.38;;
60464;SDS011;46314;52.392;9.758;2023-04-06T05:07:39;14.07;;;10.35;;
60464;SDS011;46314;52.392;9.758;2023-04-06T05:10:06;13.55;;;10.25;;
60464;SDS011;46314;52.392;9.758;2023-04-06T05:12:33;11.68;;;10.48;;
60464;SDS011;46314;52.392;9.758;2023-04-06T05:15:01;11.07;;;9.63;;
60464;SDS011;46314;52.392;9.758;2023-04-06T05:17:27;13.85;;;10.10;;
60464;SDS011;46314;52.392;9.758;2023-04-06T05:19:54;12.75;;;10.35;;
60464;SDS011;46314;52.392;9.758;2023-04-06T05:22:22;11.55;;;9.80;;
60464;SDS011;46314;52.392;9.758;2023-04-06T05:24:48;10.10;;;9.10;;
60464;SDS011;46314;52.392;9.758;2023-04-06T05:27:15;12.95;;;9.13;;
60464;SDS011;46314;52.392;9.758;2023-04-06T05:29:41;9.90;;;8.25;;
60464;SDS011;46314;52.392;9.758;2023-04-06T05:32:08;11.35;;;9.77;;
60464;SDS011;46314;52.392;9.758;2023-04-06T05:34:34;11.05;;;9.80;;
60464;SDS011;46314;52.392;9.758;2023-04-06T05:37:00;13.45;;;9.98;;
60464;SDS011;46314;52.392;9.758;2023-04-06T05:39:28;14.73;;;9.63;;
60464;SDS011;46314;52.392;9.758;2023-04-06T05:41:55;11.63;;;9.15;;
60464;SDS011;46314;52.392;9.758;2023-04-06T05:44:21;12.10;;;9.35;;
60464;SDS011;46314;52.392;9.758;2023-04-06T05:46:47;12.90;;;8.77;;
60464;SDS011;46314;52.392;9.758;2023-04-06T05:49:14;11.70;;;9.73;;
60464;SDS011;46314;52.392;9.758;2023-04-06T05:51:40;13.32;;;9.25;;
60464;SDS011;46314;52.392;9.758;2023-04-06T05:54:07;10.88;;;9.13;;
60464;SDS011;46314;52.392;9.758;2023-04-06T05:56:34;10.48;;;8.60;;
60464;SDS011;46314;52.392;9.758;2023-04-06T05:59:01;10.70;;;8.30;;
60464;SDS011;46314;52.392;9.758;2023-04-06T06:01:27;11.07;;;8.68;;
60464;SDS011;46314;52.392;9.758;2023-04-06T06:03:54;9.77;;;8.40;;
60464;SDS011;46314;52.392;9.758;2023-04-06T06:06:20;11.52;;;8.77;;
60464;SDS011;46314;52.392;9.758;2023-04-06T06:08:46;12.60;;;9.10;;
60464;SDS011;46314;52.392;9.758;2023-04-06T06:11:14;10.82;;;9.48;;
60464;SDS011;46314;52.392;9.758;2023-04-06T06:13:42;10.50;;;9.27;;
60464;SDS011;46314;52.392;9.758;2023-04-06T06:16:08;11.45;;;9.80;;
60464;SDS011;46314;52.392;9.758;2023-04-06T06:18:34;11.75;;;9.13;;
60464;SDS011;46314;52.392;9.758;2023-04-06T06:21:01;11.68;;;8.75;;
60464;SDS011;46314;52.392;9.758;2023-04-06T06:23:27;12.80;;;9.13;;
60464;SDS011;46314;52.392;9.758;2023-04-06T06:25:54;13.98;;;10.48;;
60464;SDS011;46314;52.392;9.758;2023-04-06T06:28:20;17.50;;;9.18;;
60464;SDS011;46314;52.392;9.758;2023-04-06T06:30:48;11.88;;;7.72;;
60464;SDS011;46314;52.392;9.758;2023-04-06T06:33:15;12.40;;;8.27;;
60464;SDS011;46314;52.392;9.758;2023-04-06T06:35:41;22.75;;;11.00;;
60464;SDS011;46314;52.392;9.758;2023-04-06T06:38:08;12.93;;;9.02;;
60464;SDS011;46314;52.392;9.758;2023-04-06T06:40:34;13.65;;;9.50;;
60464;SDS011;46314;52.392;9.758;2023-04-06T06:43:01;11.95;;;7.60;;
60464;SDS011;46314;52.392;9.758;2023-04-06T06:45:28;9.55;;;7.85;;
60464;SDS011;46314;52.392;9.758;2023-04-06T06:47:56;9.63;;;8.65;;
60464;SDS011;46314;52.392;9.758;2023-04-06T06:50:23;9.25;;;7.68;;
60464;SDS011;46314;52.392;9.758;2023-04-06T06:52:49;9.35;;;8.23;;
60464;SDS011;46314;52.392;9.758;2023-04-06T06:55:16;11.93;;;8.73;;
60464;SDS011;46314;52.392;9.758;2023-04-06T06:57:42;8.75;;;7.30;;
60464;SDS011;46314;52.392;9.758;2023-04-06T07:00:09;13.70;;;7.13;;
60464;SDS011;46314;52.392;9.758;2023-04-06T07:02:39;9.48;;;8.02;;
60464;SDS011;46314;52.392;9.758;2023-04-06T07:05:07;8.52;;;6.85;;
60464;SDS011;46314;52.392;9.758;2023-04-06T07:07:51;7.93;;;6.65;;
60464;SDS011;46314;52.392;9.758;2023-04-06T07:10:18;12.30;;;7.03;;
60464;SDS011;46314;52.392;9.758;2023-04-06T07:12:44;9.93;;;7.93;;
60464;SDS011;46314;52.392;9.758;2023-04-06T07:15:11;8.77;;;7.28;;
60464;SDS011;46314;52.392;9.758;2023-04-06T07:17:37;9.23;;;7.28;;
60464;SDS011;46314;52.392;9.758;2023-04-06T07:20:04;9.73;;;6.97;;
60464;SDS011;46314;52.392;9.758;2023-04-06T07:22:32;8.50;;;6.93;;
60464;SDS011;46314;52.392;9.758;2023-04-06T07:24:59;7.85;;;6.93;;
60464;SDS011;46314;52.392;9.758;2023-04-06T07:27:25;8.77;;;6.47;;
60464;SDS011;46314;52.392;9.758;2023-04-06T07:29:52;8.93;;;6.60;;
60464;SDS011;46314;52.392;9.758;2023-04-06T07:32:18;7.13;;;6.43;;
60464;SDS011;46314;52.392;9.758;2023-04-06T07:34:45;10.75;;;7.00;;
60464;SDS011;46314;52.392;9.758;2023-04-06T07:37:11;8.13;;;7.28;;
60464;SDS011;46314;52.392;9.758;2023-04-06T07:39:39;9.20;;;7.63;;
60464;SDS011;46314;52.392;9.758;2023-04-06T07:42:06;10.13;;;6.95;;
60464;SDS011;46314;52.392;9.758;2023-04-06T07:44:32;10.57;;;7.05;;
60464;SDS011;46314;52.392;9.758;2023-04-06T07:46:59;7.78;;;6.15;;
60464;SDS011;46314;52.392;9.758;2023-04-06T07:49:25;8.68;;;7.18;;
60464;SDS011;46314;52.392;9.758;2023-04-06T07:51:51;8.05;;;6.75;;
60464;SDS011;46314;52.392;9.758;2023-04-06T07:54:18;8.77;;;6.30;;
60464;SDS011;46314;52.392;9.758;2023-04-06T07:56:46;8.45;;;6.28;;
60464;SDS011;46314;52.392;9.758;2023-04-06T07:59:12;12.20;;;7.53;;
60464;SDS011;46314;52.392;9.758;2023-04-06T08:01:38;7.63;;;6.75;;
60464;SDS011;46314;52.392;9.758;2023-04-06T08:04:05;9.32;;;6.95;;
60464;SDS011;46314;52.392;9.758;2023-04-06T08:06:32;6.70;;;5.93;;
60464;SDS011;46314;52.392;9.758;2023-04-06T08:08:58;8.57;;;7.07;;
60464;SDS011;46314;52.392;9.758;2023-04-06T08:11:24;8.88;;;6.68;;
60464;SDS011;46314;52.392;9.758;2023-04-06T08:13:52;9.85;;;7.53;;
60464;SDS011;46314;52.392;9.758;2023-04-06T08:16:19;11.55;;;7.18;;
60464;SDS011;46314;52.392;9.758;2023-04-06T08:18:46;9.20;;;6.95;;
60464;SDS011;46314;52.392;9.758;2023-04-06T08:21:12;7.90;;;6.85;;
60464;SDS011;46314;52.392;9.758;2023-04-06T08:23:39;11.23;;;6.65;;
60464;SDS011;46314;52.392;9.758;2023-04-06T08:26:05;10.48;;;7.75;;
60464;SDS011;46314;52.392;9.758;2023-04-06T08:28:32;8.05;;;7.22;;
60464;SDS011;46314;52.392;9.758;2023-04-06T08:31:02;9.75;;;6.55;;
60464;SDS011;46314;52.392;9.758;2023-04-06T08:33:30;9.63;;;6.97;;
60464;SDS011;46314;52.392;9.758;2023-04-06T08:35:56;9.57;;;7.90;;
60464;SDS011;46314;52.392;9.758;2023-04-06T08:38:23;9.18;;;7.32;;
60464;SDS011;46314;52.392;9.758;2023-04-06T08:40:49;10.45;;;7.00;;
60464;SDS011;46314;52.392;9.758;2023-04-06T08:43:16;9.75;;;6.90;;
60464;SDS011;46314;52.392;9.758;2023-04-06T08:45:45;11.80;;;7.60;;
60464;SDS011;46314;52.392;9.758;2023-04-06T08:48:13;8.48;;;7.00;;
60464;SDS011;46314;52.392;9.758;2023-04-06T08:50:41;7.88;;;6.75;;
60464;SDS011;46314;52.392;9.758;2023-04-06T08:53:08;9.50;;;8.18;;
60464;SDS011;46314;52.392;9.758;2023-04-06T08:55:35;9.05;;;7.35;;
60464;SDS011;46314;52.392;9.758;2023-04-06T08:58:02;11.30;;;7.80;;
60464;SDS011;46314;52.392;9.758;2023-04-06T09:00:32;10.38;;;8.05;;
60464;SDS011;46314;52.392;9.758;2023-04-06T09:02:59;12.75;;;7.28;;
60464;SDS011;46314;52.392;9.758;2023-04-06T09:05:27;12.85;;;7.97;;
60464;SDS011;46314;52.392;9.758;2023-04-06T09:07:54;8.55;;;7.45;;
60464;SDS011;46314;52.392;9.758;2023-04-06T09:10:21;8.30;;;7.00;;
60464;SDS011;46314;52.392;9.758;2023-04-06T09:12:47;13.82;;;8.43;;
60464;SDS011;46314;52.392;9.758;2023-04-06T09:15:17;11.48;;;6.95;;
60464;SDS011;46314;52.392;9.758;2023-04-06T09:17:48;10.07;;;8.23;;
60464;SDS011;46314;52.392;9.758;2023-04-06T09:20:14;8.85;;;7.63;;
60464;SDS011;46314;52.392;9.758;2023-04-06T09:22:42;9.52;;;7.38;;
60464;SDS011;46314;52.392;9.758;2023-04-06T09:25:08;12.45;;;7.60;;
60464;SDS011;46314;52.392;9.758;2023-04-06T09:27:36;8.25;;;7.25;;
60464;SDS011;46314;52.392;9.758;2023-04-06T09:30:07;12.43;;;8.02;;
60464;SDS011;46314;52.392;9.758;2023-04-06T09:32:43;8.68;;;7.80;;
60464;SDS011;46314;52.392;9.758;2023-04-06T09:35:15;8.43;;;7.53;;
60464;SDS011;46314;52.392;9.758;2023-04-06T09:37:43;8.70;;;6.78;;
60464;SDS011;46314;52.392;9.758;2023-04-06T09:40:10;9.93;;;7.43;;
60464;SDS011;46314;52.392;9.758;2023-04-06T09:42:37;13.60;;;9.05;;
60464;SDS011;46314;52.392;9.758;2023-04-06T09:45:04;9.45;;;7.95;;
60464;SDS011;46314;52.392;9.758;2023-04-06T09:47:31;7.43;;;6.72;;
60464;SDS011;46314;52.392;9.758;2023-04-06T09:49:59;11.20;;;8.98;;
60464;SDS011;46314;52.392;9.758;2023-04-06T09:52:26;10.60;;;8.05;;
60464;SDS011;46314;52.392;9.758;2023-04-06T09:54:59;10.18;;;8.32;;
60464;SDS011;46314;52.392;9.758;2023-04-06T09:57:30;7.82;;;6.80;;
60464;SDS011;46314;52.392;9.758;2023-04-06T10:00:03;8.52;;;7.32;;
60464;SDS011;46314;52.392;9.758;2023-04-06T10:02:32;7.70;;;6.72;;
60464;SDS011;46314;52.392;9.758;2023-04-06T10:05:05;10.93;;;7.95;;
60464;SDS011;46314;52.392;9.758;2023-04-06T10:07:35;8.07;;;6.57;;
60464;SDS011;46314;52.392;9.758;2023-04-06T10:10:23;8.73;;;7.35;;
60464;SDS011;46314;52.392;9.758;2023-04-06T10:12:50;8.75;;;7.85;;
60464;SDS011;46314;52.392;9.758;2023-04-06T10:15:17;8.50;;;7.30;;
60464;SDS011;46314;52.392;9.758;2023-04-06T10:17:48;11.98;;;7.25;;
60464;SDS011;46314;52.392;9.758;2023-04-06T10:20:16;10.45;;;7.85;;
60464;SDS011;46314;52.392;9.758;2023-04-06T10:22:50;9.52;;;7.07;;
60464;SDS011;46314;52.392;9.758;2023-04-06T10:25:27;7.95;;;7.03;;
60464;SDS011;46314;52.392;9.758;2023-04-06T10:28:01;7.50;;;6.57;;
60464;SDS011;46314;52.392;9.758;2023-04-06T10:30:30;8.90;;;7.18;;
60464;SDS011;46314;52.392;9.758;2023-04-06T10:32:58;8.82;;;7.35;;
60464;SDS011;46314;52.392;9.758;2023-04-06T10:35:25;9.10;;;7.63;;
60464;SDS011;46314;52.392;9.758;2023-04-06T10:38:03;8.30;;;7.13;;
60464;SDS011;46314;52.392;9.758;2023-04-06T10:40:32;8.70;;;7.53;;
60464;SDS011;46314;52.392;9.758;2023-04-06T10:43:12;9.95;;;7.50;;
60464;SDS011;46314;52.392;9.758;2023-04-06T10:45:39;8.40;;;7.50;;
60464;SDS011;46314;52.392;9.758;2023-04-06T10:48:12;9.93;;;7.50;;
60464;SDS011;46314;52.392;9.758;2023-04-06T10:50:39;8.55;;;6.90;;
60464;SDS011;46314;52.392;9.758;2023-04-06T10:53:07;7.88;;;7.18;;
60464;SDS011;46314;52.392;9.758;2023-04-06T10:55:34;7.78;;;6.13;;
60464;SDS011;46314;52.392;9.758;2023-04-06T10:58:05;10.48;;;7.10;;
60464;SDS011;46314;52.392;9.758;2023-04-06T11:00:32;10.38;;;7.15;;
60464;SDS011;46314;52.392;9.758;2023-04-06T11:03:15;8.65;;;7.50;;
60464;SDS011;46314;52.392;9.758;2023-04-06T11:05:43;9.18;;;8.10;;
60464;SDS011;46314;52.392;9.758;2023-04-06T11:08:21;9.50;;;8.50;;
60464;SDS011;46314;52.392;9.758;2023-04-06T11:10:50;9.85;;;8.70;;
60464;SDS011;46314;52.392;9.758;2023-04-06T11:13:16;11.30;;;8.52;;
60464;SDS011;46314;52.392;9.758;2023-04-06T11:15:42;10.80;;;8.68;;
60464;SDS011;46314;52.392;9.758;2023-04-06T11:18:09;9.38;;;8.02;;
60464;SDS011;46314;52.392;9.758;2023-04-06T11:20:36;8.98;;;8.07;;
60464;SDS011;46314;52.392;9.758;2023-04-06T11:23:03;10.65;;;8.70;;
60464;SDS011;46314;52.392;9.758;2023-04-06T11:25:29;8.35;;;7.55;;
60464;SDS011;46314;52.392;9.758;2023-04-06T11:27:57;10.43;;;8.60;;
60464;SDS011;46314;52.392;9.758;2023-04-06T11:30:23;10.00;;;8.80;;
60464;SDS011;46314;52.392;9.758;2023-04-06T11:32:50;10.93;;;9.30;;
60464;SDS011;46314;52.392;9.758;2023-04-06T11:35:19;10.30;;;8.82;;
60464;SDS011;46314;52.392;9.758;2023-04-06T11:37:48;10.77;;;9.20;;
60464;SDS011;46314;52.392;9.758;2023-04-06T11:40:15;11.93;;;9.07;;
60464;SDS011;46314;52.392;9.758;2023-04-06T11:42:41;11.88;;;9.85;;
60464;SDS011;46314;52.392;9.758;2023-04-06T11:45:10;12.75;;;9.15;;
60464;SDS011;46314;52.392;9.758;2023-04-06T11:47:41;13.48;;;10.35;;
60464;SDS011;46314;52.392;9.758;2023-04-06T11:50:11;10.85;;;9.18;;
60464;SDS011;46314;52.392;9.758;2023-04-06T11:52:39;10.77;;;9.32;;
60464;SDS011;46314;52.392;9.758;2023-04-06T11:55:10;9.88;;;8.55;;
60464;SDS011;46314;52.392;9.758;2023-04-06T11:57:38;10.77;;;9.63;;
60464;SDS011;46314;52.392;9.758;2023-04-06T12:00:05;10.02;;;9.02;;
60464;SDS011;46314;52.392;9.758;2023-04-06T12:02:34;13.18;;;9.40;;
60464;SDS011;46314;52.392;9.758;2023-04-06T12:05:00;10.93;;;9.85;;
60464;SDS011;46314;52.392;9.758;2023-04-06T12:07:27;12.57;;;10.10;;
60464;SDS011;46314;52.392;9.758;2023-04-06T12:09:54;12.15;;;9.52;;
60464;SDS011;46314;52.392;9.758;2023-04-06T12:12:21;10.60;;;9.50;;
60464;SDS011;46314;52.392;9.758;2023-04-06T12:14:47;10.80;;;9.70;;
60464;SDS011;46314;52.392;9.758;2023-04-06T12:17:13;13.10;;;9.30;;
60464;SDS011;46314;52.392;9.758;2023-04-06T12:19:41;10.07;;;9.07;;
60464;SDS011;46314;52.392;9.758;2023-04-06T12:22:08;10.57;;;9.52;;
60464;SDS011;46314;52.392;9.758;2023-04-06T12:24:34;15.32;;;9.70;;
60464;SDS011;46314;52.392;9.758;2023-04-06T12:27:01;11.70;;;9.75;;
60464;SDS011;46314;52.392;9.758;2023-04-06T12:29:36;10.40;;;9.32;;
60464;SDS011;46314;52.392;9.758;2023-04-06T12:32:02;11.52;;;8.50;;
60464;SDS011;46314;52.392;9.758;2023-04-06T12:34:29;10.60;;;8.80;;
60464;SDS011;46314;52.392;9.758;2023-04-06T12:36:57;10.32;;;8.48;;
60464;SDS011;46314;52.392;9.758;2023-04-06T12:39:23;10.88;;;8.45;;
60464;SDS011;46314;52.392;9.758;2023-04-06T12:41:50;11.52;;;8.10;;
60464;SDS011;46314;52.392;9.758;2023-04-06T12:44:16;10.82;;;8.88;;
60464;SDS011;46314;52.392;9.758;2023-04-06T12:46:43;11.00;;;9.65;;
60464;SDS011;46314;52.392;9.758;2023-04-06T12:49:09;10.63;;;9.18;;
60464;SDS011;46314;52.392;9.758;2023-04-06T12:51:36;10.73;;;9.52;;
60464;SDS011;46314;52.392;9.758;2023-04-06T12:54:04;9.98;;;8.38;;
60464;SDS011;46314;52.392;9.758;2023-04-06T12:56:30;11.07;;;8.35;;
60464;SDS011;46314;52.392;9.758;2023-04-06T12:58:57;10.85;;;9.15;;
60464;SDS011;46314;52.392;9.758;2023-04-06T13:01:24;11.75;;;9.18;;
60464;SDS011;46314;52.392;9.758;2023-04-06T13:03:50;9.20;;;8.30;;
60464;SDS011;46314;52.392;9.758;2023-04-06T13:06:17;10.02;;;9.02;;
60464;SDS011;46314;52.392;9.758;2023-04-06T13:08:43;10.80;;;9.73;;
60464;SDS011;46314;52.392;9.758;2023-04-06T13:11:11;9.55;;;8.45;;
60464;SDS011;46314;52.392;9.758;2023-04-06T13:13:38;10.60;;;8.90;;
60464;SDS011;46314;52.392;9.758;2023-04-06T13:16:05;11.90;;;8.75;;
60464;SDS011;46314;52.392;9.758;2023-04-06T13:18:34;11.38;;;8.48;;
60464;SDS011;46314;52.392;9.758;2023-04-06T13:21:01;9.50;;;8.60;;
60464;SDS011;46314;52.392;9.758;2023-04-06T13:23:27;9.38;;;8.32;;
60464;SDS011;46314;52.392;9.758;2023-04-06T13:25:57;9.88;;;8.27;;
60464;SDS011;46314;52.392;9.758;2023-04-06T13:28:26;9.40;;;7.97;;
60464;SDS011;46314;52.392;9.758;2023-04-06T13:30:54;11.80;;;9.45;;
60464;SDS011;46314;52.392;9.758;2023-04-06T13:33:21;10.60;;;8.63;;
60464;SDS011;46314;52.392;9.758;2023-04-06T13:35:47;9.32;;;8.43;;
60464;SDS011;46314;52.392;9.758;2023-04-06T13:38:14;12.93;;;10.40;;
60464;SDS011;46314;52.392;9.758;2023-04-06T13:40:41;10.77;;;9.57;;
60464;SDS011;46314;52.392;9.758;2023-04-06T13:43:07;11.27;;;9.55;;
60464;SDS011;46314;52.392;9.758;2023-04-06T13:45:36;9.90;;;8.60;;
60464;SDS011;46314;52.392;9.758;2023-04-06T13:48:03;10.88;;;9.75;;
60464;SDS011;46314;52.392;9.758;2023-04-06T13:50:29;9.88;;;8.75;;
60464;SDS011;46314;52.392;9.758;2023-04-06T13:52:56;12.30;;;8.57;;
60464;SDS011;46314;52.392;9.758;2023-04-06T13:55:22;10.65;;;9.23;;
60464;SDS011;46314;52.392;9.758;2023-04-06T13:57:49;12.15;;;8.80;;
60464;SDS011;46314;52.392;9.758;2023-04-06T14:00:15;11.18;;;8.43;;
60464;SDS011;46314;52.392;9.758;2023-04-06T14:02:43;10.45;;;8.73;;
60464;SDS011;46314;52.392;9.758;2023-04-06T14:05:10;10.05;;;8.73;;
60464;SDS011;46314;52.392;9.758;2023-04-06T14:07:37;13.70;;;9.50;;
60464;SDS011;46314;52.392;9.758;2023-04-06T14:10:03;10.68;;;9.57;;
60464;SDS011;46314;52.392;9.758;2023-04-06T14:12:31;9.93;;;8.50;;
60464;SDS011;46314;52.392;9.758;2023-04-06T14:14:57;10.77;;;8.85;;
60464;SDS011;46314;52.392;9.758;2023-04-06T14:17:23;9.60;;;8.70;;
60464;SDS011;46314;52.392;9.758;2023-04-06T14:19:51;9.10;;;8.20;;
60464;SDS011;46314;52.392;9.758;2023-04-06T14:22:18;11.07;;;8.35;;
60464;SDS011;46314;52.392;9.758;2023-04-06T14:24:44;9.77;;;8.30;;
60464;SDS011;46314;52.392;9.758;2023-04-06T14:27:11;9.82;;;8.18;;
60464;SDS011;46314;52.392;9.758;2023-04-06T14:29:38;10.25;;;8.48;;
60464;SDS011;46314;52.392;9.758;2023-04-06T14:32:05;10.55;;;7.97;;
60464;SDS011;46314;52.392;9.758;2023-04-06T14:34:32;10.93;;;8.35;;